createdAt,value
2023-03-12T00:01:59.735Z,0.00
2023-03-12T00:04:27.005Z,0.00
2023-03-12T00:06:53.602Z,0.00
2023-03-12T00:09:20.383Z,0.00
2023-03-12T00:11:47.054Z,0.00
2023-03-12T00:14:13.687Z,0.00
2023-03-12T00:16:40.472Z,-0.10
2023-03-12T00:19:07.255Z,-0.10
2023-03-12T00:21:33.799Z,-0.10
2023-03-12T00:24:00.440Z,-0.10
2023-03-12T00:26:27.006Z,-0.10
2023-03-12T00:28:53.786Z,-0.10
2023-03-12T00:31:22.458Z,-0.20
2023-03-12T00:33:51.756Z,-0.20
2023-03-12T00:36:19.213Z,-0.10
2023-03-12T00:38:45.883Z,-0.20
2023-03-12T00:41:12.593Z,-0.30
2023-03-12T00:43:39.224Z,-0.30
2023-03-12T00:46:05.810Z,-0.30
2023-03-12T00:48:32.375Z,-0.40
2023-03-12T00:50:58.970Z,-0.40
2023-03-12T00:53:25.569Z,-0.40
2023-03-12T00:55:52.246Z,-0.30
2023-03-12T00:58:18.823Z,-0.40
2023-03-12T01:00:45.637Z,-0.50
2023-03-12T01:03:12.329Z,-0.50
2023-03-12T01:05:40.735Z,-0.50
2023-03-12T01:08:08.000Z,-0.50
2023-03-12T01:10:35.234Z,-0.50
2023-03-12T01:13:01.852Z,-0.50
2023-03-12T01:15:28.920Z,-0.50
2023-03-12T01:17:55.468Z,-0.60
2023-03-12T01:20:23.086Z,-0.60
2023-03-12T01:22:49.760Z,-0.60
2023-03-12T01:25:16.356Z,-0.60
2023-03-12T01:27:42.978Z,-0.70
2023-03-12T01:30:10.337Z,-0.60
2023-03-12T01:32:37.469Z,-0.60
2023-03-12T01:35:04.260Z,-0.60
2023-03-12T01:37:32.057Z,-0.60
2023-03-12T01:39:58.806Z,-0.70
2023-03-12T01:42:25.491Z,-0.60
2023-03-12T01:44:53.533Z,-0.70
2023-03-12T01:47:20.597Z,-0.60
2023-03-12T01:49:48.121Z,-0.60
2023-03-12T01:52:16.544Z,-0.60
2023-03-12T01:54:45.468Z,-0.50
2023-03-12T01:57:16.041Z,-0.50
2023-03-12T01:59:45.831Z,-0.20
2023-03-12T02:02:13.859Z,-0.50
2023-03-12T02:04:40.975Z,-0.50
2023-03-12T02:07:08.605Z,-0.50
2023-03-12T02:09:37.339Z,-0.50
2023-03-12T02:12:04.464Z,-0.60
2023-03-12T02:14:31.319Z,-0.50
2023-03-12T02:16:57.915Z,-0.50
2023-03-12T02:19:34.330Z,-0.60
2023-03-12T02:22:01.631Z,-0.60
2023-03-12T02:24:33.513Z,-0.60
2023-03-12T02:27:01.170Z,-0.70
2023-03-12T02:29:30.303Z,-0.80
2023-03-12T02:31:59.654Z,-0.70
2023-03-12T02:34:26.270Z,-0.70
2023-03-12T02:36:52.841Z,-0.60
2023-03-12T02:39:19.643Z,-0.60
2023-03-12T02:41:48.662Z,-0.60
2023-03-12T02:44:20.585Z,-0.60
2023-03-12T02:46:48.941Z,-0.50
2023-03-12T02:49:15.904Z,-0.50
2023-03-12T02:51:43.266Z,-0.50
2023-03-12T02:54:10.766Z,-0.50
2023-03-12T02:56:37.503Z,-0.50
2023-03-12T02:59:04.589Z,-0.50
2023-03-12T03:01:34.254Z,-0.50
2023-03-12T03:04:04.914Z,-0.50
2023-03-12T03:06:32.514Z,-0.50
2023-03-12T03:08:59.318Z,-0.40
2023-03-12T03:11:26.248Z,-0.30
2023-03-12T03:13:52.985Z,-0.30
2023-03-12T03:16:19.766Z,-0.30
2023-03-12T03:18:46.700Z,-0.30
2023-03-12T03:21:16.571Z,-0.30
2023-03-12T03:23:44.450Z,-0.30
2023-03-12T03:26:11.029Z,-0.30
2023-03-12T03:28:38.090Z,-0.30
2023-03-12T03:31:05.187Z,-0.30
2023-03-12T03:33:33.161Z,-0.40
2023-03-12T03:36:00.169Z,-0.30
2023-03-12T03:38:27.257Z,-0.20
2023-03-12T03:40:54.223Z,-0.20
2023-03-12T03:43:21.043Z,-0.20
2023-03-12T03:45:47.738Z,-0.20
2023-03-12T03:48:14.645Z,-0.10
2023-03-12T03:50:41.544Z,-0.10
2023-03-12T03:53:08.734Z,-0.10
2023-03-12T03:55:39.192Z,-0.10
2023-03-12T03:58:06.022Z,-0.10
2023-03-12T04:00:32.814Z,-0.10
2023-03-12T04:02:59.758Z,-0.10
2023-03-12T04:05:26.538Z,-0.10
2023-03-12T04:07:53.540Z,-0.20
2023-03-12T04:10:20.663Z,-0.20
2023-03-12T04:12:47.344Z,-0.10
2023-03-12T04:15:13.898Z,-0.20
2023-03-12T04:17:40.668Z,-0.20
2023-03-12T04:20:09.347Z,-0.10
2023-03-12T04:22:35.956Z,-0.10
2023-03-12T04:25:02.960Z,0.00
2023-03-12T04:27:29.698Z,0.00
2023-03-12T04:29:56.233Z,0.00
2023-03-12T04:32:22.891Z,0.00
2023-03-12T04:34:49.588Z,0.00
2023-03-12T04:37:16.516Z,0.00
2023-03-12T04:39:43.921Z,0.00
2023-03-12T04:42:10.856Z,0.00
2023-03-12T04:44:37.756Z,0.00
2023-03-12T04:47:04.655Z,0.10
2023-03-12T04:49:31.290Z,0.10
2023-03-12T04:51:57.862Z,0.10
2023-03-12T04:54:24.463Z,0.10
2023-03-12T04:56:51.066Z,0.10
2023-03-12T04:59:17.613Z,0.10
2023-03-12T05:01:44.195Z,0.00
2023-03-12T05:04:10.945Z,0.00
2023-03-12T05:06:37.526Z,0.00
2023-03-12T05:09:04.152Z,0.00
2023-03-12T05:11:31.108Z,0.10
2023-03-12T05:13:57.696Z,0.10
2023-03-12T05:16:24.463Z,0.10
2023-03-12T05:18:51.170Z,0.10
2023-03-12T05:21:19.646Z,0.20
2023-03-12T05:23:46.704Z,0.20
2023-03-12T05:26:17.789Z,0.20
2023-03-12T05:28:44.591Z,0.20
2023-03-12T05:31:11.654Z,0.10
2023-03-12T05:33:38.611Z,0.10
2023-03-12T05:36:05.411Z,0.10
2023-03-12T05:38:32.072Z,0.10
2023-03-12T05:40:59.419Z,0.20
2023-03-12T05:43:26.450Z,0.20
2023-03-12T05:45:53.433Z,0.10
2023-03-12T05:48:20.125Z,0.20
2023-03-12T05:50:46.713Z,0.10
2023-03-12T05:53:13.367Z,0.20
2023-03-12T05:55:40.055Z,0.20
2023-03-12T05:58:07.146Z,0.20
2023-03-12T06:00:38.460Z,0.20
2023-03-12T06:03:05.684Z,0.30
2023-03-12T06:05:33.029Z,0.30
2023-03-12T06:07:59.636Z,0.40
2023-03-12T06:10:26.234Z,0.40
2023-03-12T06:12:52.742Z,0.50
2023-03-12T06:15:19.341Z,0.50
2023-03-12T06:17:45.906Z,0.60
2023-03-12T06:20:12.800Z,0.60
2023-03-12T06:22:39.414Z,0.70
2023-03-12T06:25:06.271Z,0.80
2023-03-12T06:27:32.935Z,0.80
2023-03-12T06:29:59.569Z,1.00
2023-03-12T06:32:26.219Z,1.10
2023-03-12T06:34:52.994Z,1.20
2023-03-12T06:37:19.704Z,1.30
2023-03-12T06:39:46.295Z,1.40
2023-03-12T06:42:14.664Z,1.50
2023-03-12T06:44:41.387Z,1.60
2023-03-12T06:47:08.015Z,1.70
2023-03-12T06:49:36.492Z,1.90
2023-03-12T06:52:03.304Z,2.10
2023-03-12T06:54:30.011Z,2.40
2023-03-12T06:56:56.583Z,2.70
2023-03-12T06:59:23.122Z,2.80
2023-03-12T07:01:49.796Z,2.70
2023-03-12T07:04:16.451Z,2.80
2023-03-12T07:06:43.014Z,2.90
2023-03-12T07:09:09.987Z,2.90
2023-03-12T07:11:36.567Z,3.00
2023-03-12T07:14:03.209Z,3.10
2023-03-12T07:16:30.952Z,3.20
2023-03-12T07:18:57.577Z,3.30
2023-03-12T07:21:24.151Z,3.40
2023-03-12T07:23:50.866Z,3.50
2023-03-12T07:26:17.714Z,3.70
2023-03-12T07:28:44.436Z,3.70
2023-03-12T07:31:11.064Z,3.70
2023-03-12T07:33:38.012Z,3.90
2023-03-12T07:36:04.982Z,3.90
2023-03-12T07:38:31.790Z,4.00
2023-03-12T07:40:58.937Z,4.10
2023-03-12T07:43:25.712Z,4.10
2023-03-12T07:45:52.319Z,4.20
2023-03-12T07:48:20.098Z,4.10
2023-03-12T07:50:47.606Z,4.00
2023-03-12T07:53:14.171Z,3.90
2023-03-12T07:55:40.831Z,3.80
2023-03-12T07:58:07.576Z,3.80
2023-03-12T08:00:34.383Z,3.70
2023-03-12T08:03:01.225Z,3.70
2023-03-12T08:05:28.047Z,3.80
2023-03-12T08:07:54.626Z,3.80
2023-03-12T08:10:21.725Z,3.90
2023-03-12T08:12:49.108Z,4.10
2023-03-12T08:15:15.762Z,4.50
2023-03-12T08:17:42.301Z,4.80
2023-03-12T08:20:10.166Z,5.40
2023-03-12T08:22:37.704Z,5.90
2023-03-12T08:25:04.952Z,6.20
2023-03-12T08:27:31.810Z,6.40
2023-03-12T08:29:58.401Z,6.60
2023-03-12T08:32:25.194Z,6.60
2023-03-12T08:34:51.853Z,6.60
2023-03-12T08:37:18.906Z,6.50
2023-03-12T08:39:45.574Z,6.40
2023-03-12T08:42:12.275Z,6.40
2023-03-12T08:44:38.935Z,6.40
2023-03-12T08:47:05.591Z,6.40
2023-03-12T08:49:32.225Z,6.40
2023-03-12T08:51:58.806Z,6.40
2023-03-12T08:54:25.345Z,6.40
2023-03-12T08:56:52.510Z,6.50
2023-03-12T08:59:20.619Z,6.30
2023-03-12T09:01:47.481Z,6.30
2023-03-12T09:04:14.121Z,6.20
2023-03-12T09:06:41.096Z,6.30
2023-03-12T09:09:08.998Z,6.40
2023-03-12T09:11:36.887Z,6.70
2023-03-12T09:14:39.459Z,6.90
2023-03-12T09:16:50.186Z,7.30
2023-03-12T09:19:16.878Z,7.40
2023-03-12T09:21:43.569Z,7.70
2023-03-12T09:24:11.201Z,7.90
2023-03-12T09:26:37.804Z,8.20
2023-03-12T09:29:04.604Z,8.50
2023-03-12T09:31:31.298Z,9.10
2023-03-12T09:33:57.865Z,10.00
2023-03-12T09:36:24.383Z,10.60
2023-03-12T09:38:50.920Z,10.60
2023-03-12T09:41:22.158Z,10.90
2023-03-12T09:43:51.806Z,10.50
2023-03-12T09:46:23.262Z,10.20
2023-03-12T09:48:50.399Z,10.00
2023-03-12T09:51:20.136Z,9.60
2023-03-12T09:53:52.810Z,9.50
2023-03-12T09:56:20.708Z,9.40
2023-03-12T09:58:48.421Z,9.60
2023-03-12T10:01:27.401Z,9.70
2023-03-12T10:04:06.346Z,9.60
2023-03-12T10:06:51.770Z,9.40
2023-03-12T10:09:18.321Z,9.50
2023-03-12T10:11:53.806Z,9.30
2023-03-12T10:14:29.600Z,9.40
2023-03-12T10:17:03.311Z,9.40
2023-03-12T10:19:33.078Z,9.30
2023-03-12T10:22:15.731Z,9.50
2023-03-12T10:24:52.170Z,9.50
2023-03-12T10:27:18.925Z,9.40
2023-03-12T10:29:47.861Z,9.10
2023-03-12T10:32:20.885Z,9.20
2023-03-12T10:34:47.583Z,9.10
2023-03-12T10:37:17.146Z,9.10
2023-03-12T10:39:43.924Z,9.00
2023-03-12T10:42:20.838Z,9.10
2023-03-12T10:44:49.093Z,9.00
2023-03-12T10:47:37.411Z,9.20
2023-03-12T10:50:16.223Z,9.00
2023-03-12T10:52:43.253Z,8.90
2023-03-12T10:55:20.607Z,9.00
2023-03-12T10:57:47.652Z,8.60
2023-03-12T11:00:22.691Z,8.70
2023-03-12T11:02:58.683Z,8.60
2023-03-12T11:05:30.383Z,8.60
2023-03-12T11:07:57.668Z,8.50
2023-03-12T11:10:25.755Z,8.60
2023-03-12T11:12:57.158Z,8.50
2023-03-12T11:15:32.087Z,8.60
2023-03-12T11:18:18.910Z,8.60
2023-03-12T11:20:45.674Z,8.50
2023-03-12T11:23:16.249Z,8.60
2023-03-12T11:25:42.860Z,8.60
2023-03-12T11:28:17.967Z,8.50
2023-03-12T11:30:45.141Z,8.60
2023-03-12T11:33:12.407Z,8.50
2023-03-12T11:36:15.557Z,8.50
2023-03-12T11:39:02.417Z,8.40
2023-03-12T11:41:40.063Z,8.50
2023-03-12T11:44:15.467Z,8.40
2023-03-12T11:46:51.760Z,8.20
2023-03-12T11:49:27.387Z,8.20
2023-03-12T11:52:02.381Z,8.20
2023-03-12T11:54:45.297Z,8.00
2023-03-12T11:57:16.685Z,8.00
2023-03-12T11:59:55.408Z,8.00
2023-03-12T12:02:22.037Z,8.00
2023-03-12T12:05:07.541Z,7.90
2023-03-12T12:07:37.172Z,8.00
2023-03-12T12:10:11.840Z,7.90
2023-03-12T12:12:57.481Z,8.00
2023-03-12T12:15:31.342Z,8.00
2023-03-12T12:18:07.004Z,8.00
2023-03-12T12:20:45.415Z,8.10
2023-03-12T12:23:30.850Z,8.20
2023-03-12T12:26:07.814Z,8.10
2023-03-12T12:28:34.315Z,8.10
2023-03-12T12:31:19.849Z,8.20
2023-03-12T12:33:55.456Z,8.00
2023-03-12T12:36:24.183Z,8.10
2023-03-12T12:38:56.081Z,8.10
2023-03-12T12:41:26.603Z,8.10
2023-03-12T12:43:56.034Z,8.20
2023-03-12T12:46:28.107Z,8.10
2023-03-12T12:48:55.791Z,8.20
2023-03-12T12:51:26.984Z,8.20
2023-03-12T12:54:12.916Z,8.20
2023-03-12T12:56:51.042Z,8.20
2023-03-12T12:59:23.185Z,8.20
2023-03-12T13:01:50.907Z,8.20
2023-03-12T13:04:37.235Z,8.30
2023-03-12T13:07:12.660Z,8.60
2023-03-12T13:09:43.850Z,8.20
2023-03-12T13:12:30.810Z,8.20
2023-03-12T13:14:58.040Z,8.20
2023-03-12T13:17:27.195Z,8.20
2023-03-12T13:20:01.500Z,8.10
2023-03-12T13:22:35.549Z,8.20
2023-03-12T13:25:05.236Z,8.20
2023-03-12T13:27:36.579Z,8.10
2023-03-12T13:30:21.778Z,8.20
2023-03-12T13:32:48.332Z,8.30
2023-03-12T13:35:28.796Z,8.30
2023-03-12T13:37:55.331Z,8.30
2023-03-12T13:40:33.936Z,8.30
2023-03-12T13:43:11.698Z,8.30
2023-03-12T13:45:47.655Z,8.20
2023-03-12T13:48:16.131Z,8.20
2023-03-12T13:50:51.843Z,8.10
2023-03-12T13:53:47.770Z,8.10
2023-03-12T13:56:16.924Z,8.20
2023-03-12T13:59:03.232Z,8.20
2023-03-12T14:01:37.542Z,10.30
2023-03-12T14:04:06.506Z,12.20
2023-03-12T14:06:37.097Z,11.50
2023-03-12T14:09:03.639Z,10.80
2023-03-12T14:11:49.040Z,10.30
2023-03-12T14:14:15.575Z,9.90
2023-03-12T14:16:43.168Z,9.70
2023-03-12T14:19:12.223Z,9.50
2023-03-12T14:21:40.107Z,9.40
2023-03-12T14:24:08.493Z,9.40
2023-03-12T14:26:36.096Z,9.20
2023-03-12T14:29:07.487Z,9.20
2023-03-12T14:31:35.215Z,9.20
2023-03-12T14:34:05.754Z,9.30
2023-03-12T14:36:37.961Z,9.50
2023-03-12T14:39:21.566Z,9.70
2023-03-12T14:41:51.973Z,9.80
2023-03-12T14:44:23.158Z,10.00
2023-03-12T14:46:56.919Z,10.20
2023-03-12T14:49:23.627Z,10.30
2023-03-12T14:51:50.248Z,10.50
2023-03-12T14:54:21.152Z,10.60
2023-03-12T14:56:47.843Z,10.90
2023-03-12T14:59:25.958Z,11.20
2023-03-12T15:01:58.933Z,12.50
2023-03-12T15:04:25.825Z,12.60
2023-03-12T15:06:54.360Z,12.20
2023-03-12T15:09:25.775Z,12.00
2023-03-12T15:11:55.107Z,11.80
2023-03-12T15:14:22.940Z,11.50
2023-03-12T15:16:50.740Z,11.30
2023-03-12T15:19:20.161Z,11.10
2023-03-12T15:21:46.879Z,10.80
2023-03-12T15:24:13.927Z,10.80
2023-03-12T15:26:41.394Z,10.80
2023-03-12T15:29:13.956Z,10.70
2023-03-12T15:31:47.961Z,10.80
2023-03-12T15:34:26.420Z,10.80
2023-03-12T15:36:54.850Z,10.90
2023-03-12T15:39:41.729Z,10.90
2023-03-12T15:42:09.330Z,10.90
2023-03-12T15:44:56.829Z,10.90
2023-03-12T15:47:25.104Z,10.90
2023-03-12T15:49:53.385Z,10.90
2023-03-12T15:52:19.940Z,10.80
2023-03-12T15:55:05.212Z,10.80
2023-03-12T15:57:35.160Z,10.80
2023-03-12T16:00:12.118Z,10.80
2023-03-12T16:02:40.037Z,11.00
2023-03-12T16:05:08.134Z,11.00
2023-03-12T16:07:34.760Z,11.00
2023-03-12T16:10:01.326Z,11.10
2023-03-12T16:12:27.892Z,11.10
2023-03-12T16:14:55.935Z,11.10
2023-03-12T16:17:22.941Z,11.00
2023-03-12T16:19:49.786Z,11.00
2023-03-12T16:22:17.600Z,11.00
2023-03-12T16:24:44.238Z,10.90
2023-03-12T16:27:17.933Z,10.80
2023-03-12T16:29:47.376Z,10.70
2023-03-12T16:32:15.310Z,10.60
2023-03-12T16:34:42.136Z,10.60
2023-03-12T16:37:12.265Z,10.60
2023-03-12T16:39:39.110Z,10.50
2023-03-12T16:42:07.117Z,10.50
2023-03-12T16:44:34.789Z,10.50
2023-03-12T16:47:01.457Z,10.50
2023-03-12T16:49:28.202Z,10.40
2023-03-12T16:51:54.753Z,10.40
2023-03-12T16:54:21.320Z,10.40
2023-03-12T16:56:48.453Z,10.40
2023-03-12T16:59:22.196Z,10.30
2023-03-12T17:01:48.771Z,10.30
2023-03-12T17:04:15.405Z,10.30
2023-03-12T17:06:42.068Z,10.30
2023-03-12T17:09:08.763Z,10.20
2023-03-12T17:11:37.755Z,10.10
2023-03-12T17:14:10.217Z,10.10
2023-03-12T17:16:36.797Z,10.10
2023-03-12T17:19:03.403Z,10.00
2023-03-12T17:21:30.002Z,10.00
2023-03-12T17:23:56.799Z,9.90
2023-03-12T17:26:23.430Z,9.90
2023-03-12T17:28:50.143Z,9.80
2023-03-12T17:31:16.842Z,9.80
2023-03-12T17:33:44.390Z,9.80
2023-03-12T17:36:10.968Z,9.80
2023-03-12T17:38:37.865Z,9.70
2023-03-12T17:41:09.411Z,9.70
2023-03-12T17:43:41.102Z,9.60
2023-03-12T17:46:08.573Z,9.60
2023-03-12T17:48:35.654Z,9.60
2023-03-12T17:51:10.049Z,9.60
2023-03-12T17:53:39.464Z,9.60
2023-03-12T17:56:06.696Z,9.60
2023-03-12T17:58:33.326Z,9.50
2023-03-12T18:01:00.037Z,9.50
2023-03-12T18:03:26.746Z,9.50
2023-03-12T18:05:53.324Z,9.50
2023-03-12T18:08:19.943Z,9.50
2023-03-12T18:10:47.262Z,9.50
2023-03-12T18:13:13.813Z,9.50
2023-03-12T18:15:41.189Z,9.40
2023-03-12T18:18:07.771Z,9.40
2023-03-12T18:20:39.315Z,9.40
2023-03-12T18:23:06.781Z,9.40
2023-03-12T18:25:33.712Z,9.40
2023-03-12T18:28:00.312Z,9.40
2023-03-12T18:30:28.187Z,9.40
2023-03-12T18:32:54.971Z,9.40
2023-03-12T18:35:22.766Z,9.30
2023-03-12T18:37:51.834Z,9.30
2023-03-12T18:40:18.470Z,9.30
2023-03-12T18:42:45.123Z,9.20
2023-03-12T18:45:12.142Z,9.20
2023-03-12T18:47:44.648Z,9.30
2023-03-12T18:50:11.795Z,9.20
2023-03-12T18:52:38.487Z,9.20
2023-03-12T18:55:05.374Z,9.20
2023-03-12T18:57:32.056Z,9.20
2023-03-12T18:59:59.370Z,9.20
2023-03-12T19:02:26.025Z,9.20
2023-03-12T19:04:55.484Z,9.20
2023-03-12T19:07:22.750Z,9.20
2023-03-12T19:09:49.340Z,9.20
2023-03-12T19:12:16.064Z,9.20
2023-03-12T19:14:42.710Z,9.20
2023-03-12T19:17:09.283Z,9.20
2023-03-12T19:19:35.870Z,9.20
2023-03-12T19:22:02.464Z,9.30
2023-03-12T19:24:29.028Z,9.30
2023-03-12T19:26:56.079Z,9.30
2023-03-12T19:29:22.675Z,9.20
2023-03-12T19:31:49.327Z,9.20
2023-03-12T19:34:17.250Z,9.20
2023-03-12T19:36:43.959Z,9.30
2023-03-12T19:39:20.512Z,9.20
2023-03-12T19:41:47.891Z,9.20
2023-03-12T19:44:14.462Z,9.20
2023-03-12T19:46:42.996Z,9.20
2023-03-12T19:49:09.533Z,9.10
2023-03-12T19:51:36.283Z,9.20
2023-03-12T19:54:02.982Z,9.20
2023-03-12T19:56:29.612Z,9.10
2023-03-12T19:58:56.197Z,9.10
2023-03-12T20:01:23.022Z,9.20
2023-03-12T20:03:49.937Z,9.10
2023-03-12T20:06:16.583Z,9.10
2023-03-12T20:08:44.492Z,9.10
2023-03-12T20:11:11.136Z,9.10
2023-03-12T20:13:38.755Z,9.10
2023-03-12T20:16:06.759Z,9.10
2023-03-12T20:18:33.537Z,9.10
2023-03-12T20:21:00.190Z,9.10
2023-03-12T20:23:26.788Z,9.00
2023-03-12T20:25:53.403Z,9.00
2023-03-12T20:28:19.978Z,9.00
2023-03-12T20:30:46.664Z,9.00
2023-03-12T20:33:13.678Z,9.10
2023-03-12T20:35:40.313Z,9.00
2023-03-12T20:38:06.948Z,9.00
2023-03-12T20:40:33.499Z,9.00
2023-03-12T20:43:04.636Z,9.10
2023-03-12T20:45:32.690Z,9.10
2023-03-12T20:47:59.735Z,9.10
2023-03-12T20:50:27.005Z,9.10
2023-03-12T20:52:53.601Z,9.10
2023-03-12T20:55:20.207Z,9.10
2023-03-12T20:57:46.821Z,9.10
2023-03-12T21:00:13.542Z,9.10
2023-03-12T21:02:40.153Z,9.10
2023-03-12T21:05:06.838Z,9.20
2023-03-12T21:07:33.377Z,9.10
2023-03-12T21:09:59.946Z,9.10
2023-03-12T21:12:26.508Z,9.10
2023-03-12T21:14:53.112Z,9.10
2023-03-12T21:17:19.778Z,9.10
2023-03-12T21:19:46.568Z,9.20
2023-03-12T21:22:13.221Z,9.20
2023-03-12T21:24:39.814Z,9.20
2023-03-12T21:27:06.485Z,9.10
2023-03-12T21:29:33.067Z,9.10
2023-03-12T21:31:59.655Z,9.20
2023-03-12T21:34:28.935Z,9.10
2023-03-12T21:36:56.711Z,9.10
2023-03-12T21:39:23.605Z,9.10
2023-03-12T21:41:50.130Z,9.20
2023-03-12T21:44:16.863Z,9.10
2023-03-12T21:46:43.538Z,9.10
2023-03-12T21:49:10.314Z,9.20
2023-03-12T21:51:39.412Z,9.10
2023-03-12T21:54:06.505Z,9.10
2023-03-12T21:56:33.127Z,9.10
2023-03-12T21:58:59.756Z,9.10
2023-03-12T22:01:26.452Z,9.10
2023-03-12T22:03:53.382Z,9.20
2023-03-12T22:06:20.298Z,9.00
2023-03-12T22:08:48.197Z,9.10
2023-03-12T22:11:15.393Z,9.10
2023-03-12T22:13:42.057Z,9.00
2023-03-12T22:16:09.080Z,9.00
2023-03-12T22:18:39.366Z,9.00
2023-03-12T22:21:07.516Z,9.00
2023-03-12T22:23:37.194Z,8.90
2023-03-12T22:26:05.140Z,9.00
2023-03-12T22:28:32.033Z,8.90
2023-03-12T22:30:59.529Z,8.90
2023-03-12T22:33:26.736Z,8.90
2023-03-12T22:35:53.494Z,8.90
2023-03-12T22:38:20.222Z,8.90
2023-03-12T22:40:47.888Z,8.90
2023-03-12T22:43:14.539Z,8.90
2023-03-12T22:45:41.363Z,9.00
2023-03-12T22:48:07.960Z,8.90
2023-03-12T22:50:34.609Z,8.90
2023-03-12T22:53:01.257Z,8.90
2023-03-12T22:55:27.822Z,8.90
2023-03-12T22:57:54.397Z,9.00
2023-03-12T23:00:24.018Z,8.90
2023-03-12T23:02:50.561Z,8.90
2023-03-12T23:05:17.346Z,8.90
2023-03-12T23:07:44.188Z,8.90
2023-03-12T23:10:10.990Z,8.90
2023-03-12T23:12:37.556Z,9.00
2023-03-12T23:15:04.313Z,9.00
2023-03-12T23:17:30.936Z,8.90
2023-03-12T23:19:57.517Z,8.90
2023-03-12T23:22:24.098Z,9.00
2023-03-12T23:24:50.735Z,9.00
2023-03-12T23:27:17.315Z,8.90
2023-03-12T23:29:43.920Z,8.90
2023-03-12T23:32:10.460Z,8.90
2023-03-12T23:34:37.013Z,8.90
2023-03-12T23:37:03.740Z,8.80
2023-03-12T23:39:30.845Z,8.80
2023-03-12T23:41:57.775Z,8.80
2023-03-12T23:44:24.789Z,8.80
2023-03-12T23:46:51.369Z,8.80
2023-03-12T23:49:17.911Z,8.80
2023-03-12T23:51:45.400Z,8.80
2023-03-12T23:54:12.038Z,8.80
2023-03-12T23:56:39.805Z,8.80
2023-03-12T23:59:07.970Z,8.80
